Time;durP1;ratioP1;P1;durP2;ratioP2;P2;SDS_P1;SDS_P2;PMS_P1;PMS_P2;Temp;Humidity;BMP_temperature;BMP_pressure;BME280_temperature;BME280_humidity;BME280_pressure;Samples;Min_cycle;Max_cycle;Signal;HPM_P1;HPM_P2
2022/08/20 00:00:52;;;;;;;80.47;43.93;;;16.90;99.90;;;;;;5073860;28;20193;-74
2022/08/20 00:03:21;;;;;;;80.13;43.37;;;16.90;99.90;;;;;;5074019;28;20289;-74
2022/08/20 00:05:52;;;;;;;87.00;43.53;;;16.90;99.90;;;;;;5074006;28;20208;-74
2022/08/20 00:08:18;;;;;;;85.53;44.80;;;16.90;99.90;;;;;;5074091;28;20219;-74
2022/08/20 00:10:49;;;;;;;82.30;44.23;;;16.90;99.90;;;;;;5074029;28;20197;-76
2022/08/20 00:13:19;;;;;;;89.72;44.90;;;16.90;99.90;;;;;;5073749;28;20221;-76
2022/08/20 00:15:47;;;;;;;78.33;44.37;;;16.90;99.90;;;;;;5074093;28;20676;-75
2022/08/20 00:18:14;;;;;;;86.25;45.53;;;16.90;99.90;;;;;;5074148;28;20204;-76
2022/08/20 00:20:44;;;;;;;90.40;45.93;;;17.00;99.90;;;;;;5073974;28;20718;-75
2022/08/20 00:23:11;;;;;;;93.72;45.40;;;17.00;99.90;;;;;;5073579;28;20200;-75
2022/08/20 00:25:38;;;;;;;90.43;46.33;;;17.00;99.90;;;;;;5073954;28;20200;-75
2022/08/20 00:28:07;;;;;;;88.75;44.25;;;17.00;99.90;;;;;;5073873;28;20197;-76
2022/08/20 00:30:34;;;;;;;89.38;47.33;;;17.00;99.90;;;;;;5073916;28;20266;-75
2022/08/20 00:33:04;;;;;;;95.93;46.13;;;17.00;99.90;;;;;;5073554;28;20275;-75
2022/08/20 00:35:36;;;;;;;85.47;45.90;;;17.00;99.90;;;;;;5073637;28;20201;-75
2022/08/20 00:38:04;;;;;;;100.40;48.67;;;17.00;99.90;;;;;;5073386;28;20201;-75
2022/08/20 00:40:34;;;;;;;90.13;47.23;;;17.00;99.90;;;;;;5073551;28;20201;-75
2022/08/20 00:43:03;;;;;;;104.35;50.20;;;17.00;99.90;;;;;;5072452;28;20580;-75
2022/08/20 00:45:33;;;;;;;95.45;49.70;;;17.00;99.90;;;;;;5073134;28;20595;-75
2022/08/20 00:48:00;;;;;;;98.75;48.53;;;16.90;99.90;;;;;;5073315;28;20197;-75
2022/08/20 00:50:32;;;;;;;95.22;49.28;;;16.90;99.90;;;;;;5072817;28;20200;-75
2022/08/20 00:53:01;;;;;;;80.97;46.80;;;17.00;99.90;;;;;;5071940;28;20229;-75
2022/08/20 00:55:29;;;;;;;98.20;49.95;;;17.00;99.90;;;;;;5073376;28;20200;-75
2022/08/20 00:57:58;;;;;;;93.72;48.90;;;17.00;99.90;;;;;;5073288;28;20629;-75
2022/08/20 01:00:27;;;;;;;96.85;48.33;;;17.00;99.90;;;;;;5073304;28;20201;-74
2022/08/20 01:02:56;;;;;;;93.25;47.55;;;16.90;99.90;;;;;;5073083;28;20197;-75
2022/08/20 01:05:23;;;;;;;102.03;49.17;;;17.00;99.90;;;;;;5073166;28;20197;-76
2022/08/20 01:07:52;;;;;;;96.85;49.00;;;17.00;99.90;;;;;;5072994;28;20653;-76
2022/08/20 01:10:22;;;;;;;93.70;45.67;;;16.90;99.90;;;;;;5073102;28;20196;-75
2022/08/20 01:12:52;;;;;;;96.45;47.00;;;17.00;99.90;;;;;;5073147;28;20232;-76
2022/08/20 01:15:21;;;;;;;95.32;49.92;;;17.00;99.90;;;;;;5072957;28;20203;-78
2022/08/20 01:17:51;;;;;;;106.80;50.53;;;17.00;99.90;;;;;;5072755;28;20251;-75
2022/08/20 01:20:24;;;;;;;97.97;48.00;;;17.00;99.90;;;;;;5073502;28;20211;-76
2022/08/20 01:25:48;;;;;;;108.10;49.85;;;17.00;99.90;;;;;;5072853;28;20603;-76
2022/08/20 01:28:19;;;;;;;102.07;50.97;;;17.00;99.90;;;;;;5072651;28;20204;-77
2022/08/20 01:30:46;;;;;;;95.10;48.83;;;17.00;99.90;;;;;;5072812;28;20196;-75
2022/08/20 01:33:13;;;;;;;106.50;52.47;;;16.90;99.90;;;;;;5072724;28;20220;-75
2022/08/20 01:35:41;;;;;;;113.50;52.97;;;17.00;99.90;;;;;;5072769;28;20198;-75
2022/08/20 01:38:08;;;;;;;107.30;49.58;;;17.00;99.90;;;;;;5072700;28;20204;-74
2022/08/20 01:41:15;;;;;;;109.60;51.95;;;17.00;99.90;;;;;;5072618;28;20258;-74
2022/08/20 01:43:42;;;;;;;100.77;49.40;;;17.00;99.90;;;;;;5072395;28;20232;-74
2022/08/20 01:46:10;;;;;;;101.18;51.55;;;17.00;99.90;;;;;;5072634;28;20201;-74
2022/08/20 01:48:38;;;;;;;105.17;51.40;;;17.00;99.90;;;;;;5072899;28;20201;-75
2022/08/20 01:51:08;;;;;;;100.73;52.00;;;17.00;99.90;;;;;;5072417;28;20660;-74
2022/08/20 01:53:39;;;;;;;104.03;49.33;;;17.00;99.90;;;;;;5072648;28;20221;-75
2022/08/20 01:56:10;;;;;;;102.13;51.40;;;17.00;99.90;;;;;;5072713;28;20204;-74
2022/08/20 01:58:40;;;;;;;110.80;51.53;;;17.00;99.90;;;;;;5072670;28;20201;-75
2022/08/20 02:01:07;;;;;;;111.82;53.33;;;17.00;99.90;;;;;;5072524;28;20208;-76
2022/08/20 02:03:34;;;;;;;127.30;58.35;;;17.00;99.90;;;;;;5072570;28;20274;-75
2022/08/20 02:06:02;;;;;;;124.25;54.55;;;17.00;99.90;;;;;;5072687;28;20254;-75
2022/08/20 02:08:32;;;;;;;112.40;52.13;;;17.10;99.90;;;;;;5072492;28;20565;-75
2022/08/20 02:10:58;;;;;;;105.50;53.45;;;17.10;99.90;;;;;;5072464;28;20197;-74
2022/08/20 02:13:26;;;;;;;117.33;51.77;;;17.10;99.90;;;;;;5072307;28;20251;-74
2022/08/20 02:15:53;;;;;;;101.28;51.35;;;17.10;99.90;;;;;;5072334;28;20208;-74
2022/08/20 02:18:20;;;;;;;113.65;54.45;;;17.20;99.90;;;;;;5072130;28;20193;-75
2022/08/20 02:20:49;;;;;;;105.43;53.67;;;17.20;99.90;;;;;;5072357;28;20203;-74
2022/08/20 02:23:15;;;;;;;115.93;56.10;;;17.20;99.90;;;;;;5072126;28;20660;-74
2022/08/20 02:25:46;;;;;;;122.05;59.58;;;17.10;99.90;;;;;;5072256;28;20201;-74
2022/08/20 02:28:18;;;;;;;130.63;62.00;;;17.10;99.90;;;;;;5072185;28;20197;-74
2022/08/20 02:30:48;;;;;;;121.70;60.15;;;17.10;99.90;;;;;;5072052;28;20683;-74
2022/08/20 02:33:18;;;;;;;147.67;62.43;;;17.10;99.90;;;;;;5072027;28;20630;-74
2022/08/20 02:35:46;;;;;;;128.18;62.53;;;17.10;99.90;;;;;;5072077;28;20726;-74
2022/08/20 02:38:14;;;;;;;127.05;61.42;;;17.10;99.90;;;;;;5072049;28;20671;-74
2022/08/20 02:40:42;;;;;;;113.95;59.88;;;17.10;99.90;;;;;;5072091;28;20197;-74
2022/08/20 02:43:09;;;;;;;108.83;57.07;;;17.10;99.90;;;;;;5071759;28;20228;-74
2022/08/20 02:45:42;;;;;;;114.32;59.13;;;17.10;99.90;;;;;;5073512;28;20717;-74
2022/08/20 02:48:14;;;;;;;129.18;63.33;;;17.10;99.90;;;;;;5075665;28;20250;-74
2022/08/20 02:50:43;;;;;;;126.78;62.35;;;17.00;99.90;;;;;;5075623;28;20208;-74
2022/08/20 02:53:10;;;;;;;122.00;62.72;;;17.00;99.90;;;;;;5075593;28;20711;-74
2022/08/20 02:55:37;;;;;;;112.50;59.90;;;17.00;99.90;;;;;;5075749;28;20225;-75
2022/08/20 02:58:04;;;;;;;135.27;65.90;;;17.00;99.90;;;;;;5076264;28;20246;-74
2022/08/20 03:00:32;;;;;;;118.85;63.90;;;17.00;99.90;;;;;;5075759;28;20201;-74
2022/08/20 03:02:59;;;;;;;122.83;64.27;;;16.90;99.90;;;;;;5075552;28;20197;-75
2022/08/20 03:05:28;;;;;;;144.77;70.10;;;17.00;99.90;;;;;;5075527;28;20229;-74
2022/08/20 03:07:56;;;;;;;140.97;69.83;;;16.90;99.90;;;;;;5076473;28;20205;-74
2022/08/20 03:10:24;;;;;;;121.10;65.03;;;16.90;99.90;;;;;;5075624;28;20219;-75
2022/08/20 03:12:51;;;;;;;122.90;67.30;;;16.90;99.90;;;;;;5075631;28;20320;-75
2022/08/20 03:15:20;;;;;;;141.88;69.80;;;16.90;99.90;;;;;;5075743;28;20287;-75
2022/08/20 03:17:46;;;;;;;123.22;67.75;;;16.90;99.90;;;;;;5076146;28;20203;-74
2022/08/20 03:20:14;;;;;;;124.25;66.57;;;16.90;99.90;;;;;;5075549;28;20203;-75
2022/08/20 03:22:42;;;;;;;125.18;67.63;;;16.80;99.90;;;;;;5075594;28;20336;-75
2022/08/20 03:25:10;;;;;;;140.47;70.20;;;16.80;99.90;;;;;;5075434;28;20615;-75
2022/08/20 03:27:37;;;;;;;125.13;68.25;;;16.90;99.90;;;;;;5075111;28;20196;-75
2022/08/20 03:30:06;;;;;;;115.43;66.05;;;16.90;99.90;;;;;;5075088;28;20193;-75
2022/08/20 03:32:32;;;;;;;127.43;68.72;;;16.80;99.90;;;;;;5074894;28;20247;-74
2022/08/20 03:34:59;;;;;;;125.73;70.80;;;16.80;99.90;;;;;;5074862;28;20243;-75
2022/08/20 03:37:30;;;;;;;118.23;68.03;;;16.70;99.90;;;;;;5074592;28;20250;-75
2022/08/20 03:39:58;;;;;;;120.80;69.30;;;16.60;99.90;;;;;;5075074;28;20280;-75
2022/08/20 03:42:25;;;;;;;112.60;66.90;;;16.60;99.90;;;;;;5074511;28;20283;-75
2022/08/20 03:44:52;;;;;;;109.67;66.67;;;16.50;99.90;;;;;;5074457;28;20615;-75
2022/08/20 03:47:19;;;;;;;123.80;71.30;;;16.50;99.90;;;;;;5074607;28;20259;-75
2022/08/20 03:49:46;;;;;;;117.27;68.07;;;16.40;99.90;;;;;;5074330;28;20231;-75
2022/08/20 03:52:13;;;;;;;110.23;67.40;;;16.40;99.90;;;;;;5074363;28;20200;-75
2022/08/20 03:54:40;;;;;;;106.60;64.47;;;16.40;99.90;;;;;;5074375;28;20225;-75
2022/08/20 03:57:13;;;;;;;115.13;68.67;;;16.40;99.90;;;;;;5073345;28;20754;-75
2022/08/20 03:59:40;;;;;;;115.37;68.97;;;16.30;99.90;;;;;;5074368;28;20193;-75
2022/08/20 04:02:06;;;;;;;112.57;66.33;;;16.30;99.90;;;;;;5074328;28;20201;-75
2022/08/20 04:04:33;;;;;;;107.77;65.90;;;16.30;99.90;;;;;;5074016;28;20306;-75
2022/08/20 04:07:00;;;;;;;110.70;68.27;;;16.20;99.90;;;;;;5074329;28;20264;-75
2022/08/20 04:09:27;;;;;;;117.50;70.97;;;16.20;99.90;;;;;;5074604;28;20197;-75
2022/08/20 04:11:59;;;;;;;104.57;63.90;;;16.20;99.90;;;;;;5074125;28;20588;-75
2022/08/20 04:14:26;;;;;;;108.40;68.27;;;16.20;99.90;;;;;;5073970;28;20256;-76
2022/08/20 04:16:53;;;;;;;109.90;68.87;;;16.10;99.90;;;;;;5073869;28;20714;-74
2022/08/20 04:19:20;;;;;;;113.30;68.50;;;16.10;99.90;;;;;;5074041;28;20231;-75
2022/08/20 04:21:47;;;;;;;104.57;65.63;;;16.10;99.90;;;;;;5074271;28;20205;-75
2022/08/20 04:24:14;;;;;;;92.60;62.53;;;16.10;99.90;;;;;;5074240;28;20197;-75
2022/08/20 04:26:41;;;;;;;94.50;62.10;;;16.00;99.90;;;;;;5074402;28;20193;-76
2022/08/20 04:29:08;;;;;;;93.57;61.37;;;15.90;99.90;;;;;;5074063;28;20232;-75
2022/08/20 04:31:36;;;;;;;101.23;64.43;;;15.90;99.90;;;;;;5073783;28;20214;-74
2022/08/20 04:34:06;;;;;;;98.00;63.50;;;15.90;99.90;;;;;;5073683;28;20225;-75
2022/08/20 04:36:33;;;;;;;93.50;62.03;;;15.90;99.90;;;;;;5073425;28;20637;-74
2022/08/20 04:39:00;;;;;;;95.73;63.37;;;15.90;99.90;;;;;;5073538;28;20556;-74
2022/08/20 04:41:27;;;;;;;93.93;61.17;;;15.90;99.90;;;;;;5073404;28;20197;-75
2022/08/20 04:43:55;;;;;;;99.07;63.37;;;15.90;99.90;;;;;;5073565;28;20244;-77
2022/08/20 04:46:24;;;;;;;85.93;59.77;;;15.90;99.90;;;;;;5073266;28;20652;-76
2022/08/20 04:48:52;;;;;;;93.07;60.80;;;16.00;99.90;;;;;;5073214;28;20675;-76
2022/08/20 04:51:18;;;;;;;90.93;61.47;;;16.00;99.90;;;;;;5073159;28;20289;-75
2022/08/20 04:53:46;;;;;;;89.10;59.53;;;16.00;99.90;;;;;;5073055;28;20220;-75
2022/08/20 04:56:13;;;;;;;91.17;61.43;;;16.00;99.90;;;;;;5073135;28;20656;-75
2022/08/20 04:58:40;;;;;;;86.83;59.77;;;16.10;99.90;;;;;;5073058;28;20607;-75
2022/08/20 05:01:09;;;;;;;82.93;58.70;;;16.00;99.90;;;;;;5073075;28;20764;-75
2022/08/20 05:03:37;;;;;;;81.67;57.03;;;16.00;99.90;;;;;;5073141;28;20200;-75
2022/08/20 05:06:05;;;;;;;72.80;52.43;;;15.90;99.90;;;;;;5073207;28;20197;-75
2022/08/20 05:08:34;;;;;;;68.83;52.53;;;15.90;99.90;;;;;;5072847;28;20196;-75
2022/08/20 05:11:01;;;;;;;70.43;52.47;;;15.90;99.90;;;;;;5073015;28;20291;-75
2022/08/20 05:13:28;;;;;;;66.77;51.53;;;15.90;99.90;;;;;;5072780;28;20266;-75
2022/08/20 05:15:56;;;;;;;65.23;49.90;;;15.90;99.90;;;;;;5073372;28;20205;-75
2022/08/20 05:18:25;;;;;;;64.10;50.80;;;15.80;99.90;;;;;;5072895;28;20208;-75
2022/08/20 05:20:53;;;;;;;61.03;48.77;;;15.90;99.90;;;;;;5072912;28;20265;-76
2022/08/20 05:23:22;;;;;;;55.00;44.70;;;15.90;99.90;;;;;;5072889;28;20254;-76
2022/08/20 05:25:50;;;;;;;55.97;46.83;;;15.90;99.90;;;;;;5072695;28;20221;-76
2022/08/20 05:28:19;;;;;;;55.83;45.83;;;16.00;99.90;;;;;;5072890;28;20648;-75
2022/08/20 05:30:48;;;;;;;50.73;43.83;;;16.00;99.90;;;;;;5073066;28;20200;-75
2022/08/20 05:33:17;;;;;;;49.57;41.87;;;16.00;99.90;;;;;;5072697;28;20228;-75
2022/08/20 05:35:45;;;;;;;46.17;41.00;;;16.00;99.90;;;;;;5072773;28;20208;-77
2022/08/20 05:38:14;;;;;;;43.20;38.50;;;16.00;99.90;;;;;;5072513;28;20246;-76
2022/08/20 05:40:42;;;;;;;43.17;38.37;;;16.10;99.90;;;;;;5072712;28;20257;-76
2022/08/20 05:43:09;;;;;;;43.00;38.50;;;16.20;99.90;;;;;;5072611;28;20278;-75
2022/08/20 05:45:38;;;;;;;40.63;36.27;;;16.20;99.90;;;;;;5072639;28;20201;-75
2022/08/20 05:48:06;;;;;;;40.30;35.87;;;16.10;99.90;;;;;;5072598;28;20274;-75
2022/08/20 05:50:34;;;;;;;40.00;35.87;;;16.10;99.90;;;;;;5072512;28;20201;-75
2022/08/20 05:53:01;;;;;;;39.07;34.87;;;16.10;99.90;;;;;;5072339;28;20204;-76
2022/08/20 05:55:28;;;;;;;38.03;34.00;;;16.20;99.90;;;;;;5072583;28;20229;-76
2022/08/20 05:57:59;;;;;;;35.53;31.67;;;16.30;99.90;;;;;;5072727;28;20254;-76
2022/08/20 06:00:26;;;;;;;36.63;31.87;;;16.20;99.90;;;;;;5072369;28;20231;-76
2022/08/20 06:05:34;;;;;;;35.37;31.53;;;16.20;99.90;;;;;;5049327;28;20279;-76
2022/08/20 06:08:00;;;;;;;34.00;30.30;;;16.20;99.90;;;;;;5072435;28;20288;-76
2022/08/20 06:10:27;;;;;;;35.17;30.83;;;16.30;99.90;;;;;;5072371;28;20205;-77
2022/08/20 06:12:54;;;;;;;34.90;31.00;;;16.20;99.90;;;;;;5072116;28;20197;-77
2022/08/20 06:15:21;;;;;;;34.87;30.77;;;16.30;99.90;;;;;;5072180;28;20232;-77
2022/08/20 06:17:48;;;;;;;33.83;30.43;;;16.30;99.90;;;;;;5072130;28;20201;-76
2022/08/20 06:20:15;;;;;;;33.77;30.13;;;16.30;99.90;;;;;;5073340;28;20205;-76
2022/08/20 06:22:41;;;;;;;32.77;29.37;;;16.30;99.90;;;;;;5076137;28;20200;-76
2022/08/20 06:25:09;;;;;;;30.33;27.13;;;16.40;99.90;;;;;;5076034;28;20200;-76
2022/08/20 06:27:39;;;;;;;30.43;27.33;;;16.40;99.90;;;;;;5075855;28;20737;-77
2022/08/20 06:30:07;;;;;;;34.40;28.70;;;16.30;99.90;;;;;;5075970;28;20234;-76
2022/08/20 06:32:35;;;;;;;33.10;27.47;;;16.40;99.90;;;;;;5075739;28;20193;-77
2022/08/20 06:35:03;;;;;;;30.37;27.33;;;16.40;99.90;;;;;;5076209;28;20274;-77
2022/08/20 06:37:31;;;;;;;29.83;26.83;;;16.40;99.90;;;;;;5075679;28;20598;-77
2022/08/20 06:40:01;;;;;;;27.93;25.13;;;16.50;99.90;;;;;;5075989;28;20197;-77
2022/08/20 06:42:28;;;;;;;28.92;25.92;;;16.50;99.90;;;;;;5075578;28;20312;-77
2022/08/20 06:44:55;;;;;;;28.38;25.42;;;16.50;99.90;;;;;;5075752;28;20197;-77
2022/08/20 06:47:22;;;;;;;29.40;25.73;;;16.60;99.90;;;;;;5075934;28;20197;-77
2022/08/20 06:49:50;;;;;;;28.08;25.17;;;16.70;99.90;;;;;;5075846;28;20254;-77
2022/08/20 06:52:17;;;;;;;27.40;24.60;;;16.80;99.90;;;;;;5075728;28;20262;-77
2022/08/20 06:54:44;;;;;;;27.77;24.92;;;16.80;99.90;;;;;;5075467;28;20232;-77
2022/08/20 06:57:10;;;;;;;27.25;24.48;;;16.90;99.90;;;;;;5075327;28;20201;-78
2022/08/20 06:59:37;;;;;;;24.27;21.63;;;17.00;99.90;;;;;;5075404;28;20247;-77
2022/08/20 07:02:04;;;;;;;25.30;22.60;;;17.00;99.90;;;;;;5075704;28;20201;-77
2022/08/20 07:04:31;;;;;;;24.17;21.75;;;17.10;99.90;;;;;;5075536;28;20227;-77
2022/08/20 07:06:59;;;;;;;24.15;21.75;;;17.00;99.90;;;;;;5075183;28;20648;-78
2022/08/20 07:09:27;;;;;;;26.27;22.17;;;17.00;99.90;;;;;;5075352;28;20254;-77
2022/08/20 07:11:54;;;;;;;25.23;22.27;;;17.10;99.90;;;;;;5075287;28;20196;-77
2022/08/20 07:14:21;;;;;;;23.73;21.30;;;17.10;99.90;;;;;;5075058;28;20224;-77
2022/08/20 07:16:49;;;;;;;22.08;19.92;;;17.10;99.90;;;;;;5075279;28;20288;-77
2022/08/20 07:19:16;;;;;;;24.38;21.85;;;17.20;99.90;;;;;;5075219;28;20231;-77
2022/08/20 07:21:43;;;;;;;24.05;20.15;;;17.40;99.90;;;;;;5075041;28;20251;-77
2022/08/20 07:24:11;;;;;;;21.80;19.60;;;17.40;99.90;;;;;;5074946;28;20200;-78
2022/08/20 07:26:38;;;;;;;21.63;18.63;;;17.40;99.90;;;;;;5074763;28;20208;-77
2022/08/20 07:29:04;;;;;;;21.42;19.15;;;17.40;99.90;;;;;;5075177;28;20205;-77
2022/08/20 07:34:15;;;;;;;22.40;20.08;;;17.50;99.90;;;;;;5075090;28;20576;-77
2022/08/20 07:36:42;;;;;;;22.30;20.00;;;17.50;99.90;;;;;;5074893;28;20556;-78
2022/08/20 07:39:09;;;;;;;21.35;19.15;;;17.60;99.90;;;;;;5074747;28;20207;-77
2022/08/20 07:41:37;;;;;;;20.55;18.38;;;17.70;99.90;;;;;;5074977;28;20212;-77
2022/08/20 07:44:04;;;;;;;20.83;18.73;;;17.70;99.90;;;;;;5074361;28;20237;-76
2022/08/20 07:46:31;;;;;;;19.92;17.95;;;18.00;99.90;;;;;;5074624;28;20280;-76
2022/08/20 07:48:58;;;;;;;20.50;17.92;;;18.10;99.90;;;;;;5074490;28;20652;-75
2022/08/20 07:51:25;;;;;;;20.52;17.70;;;18.20;99.90;;;;;;5074426;28;20323;-76
2022/08/20 07:53:52;;;;;;;20.42;17.17;;;18.40;99.90;;;;;;5074211;28;20718;-75
2022/08/20 07:56:22;;;;;;;20.75;17.67;;;18.50;99.90;;;;;;5074515;28;20228;-77
2022/08/20 07:58:53;;;;;;;19.27;17.27;;;18.50;99.90;;;;;;5074184;28;20664;-77
2022/08/20 08:01:24;;;;;;;18.63;16.83;;;18.70;99.90;;;;;;5074169;28;20208;-77
2022/08/20 08:03:50;;;;;;;18.13;16.33;;;18.80;99.90;;;;;;5074209;28;20208;-77
2022/08/20 08:06:19;;;;;;;18.50;16.80;;;19.00;99.90;;;;;;5074087;28;20196;-77
2022/08/20 08:08:46;;;;;;;17.55;15.85;;;19.10;99.90;;;;;;5074053;28;20578;-77
2022/08/20 08:11:13;;;;;;;17.00;15.32;;;19.30;99.90;;;;;;5074392;28;20292;-77
2022/08/20 08:13:41;;;;;;;18.17;16.27;;;19.40;99.90;;;;;;5074026;28;20197;-77
2022/08/20 08:16:10;;;;;;;17.13;15.43;;;19.70;99.90;;;;;;5073967;28;20232;-77
2022/08/20 08:18:41;;;;;;;18.55;14.82;;;20.00;99.90;;;;;;5073783;28;20200;-76
2022/08/20 08:21:11;;;;;;;16.90;15.13;;;20.50;99.90;;;;;;5073940;28;20229;-77
2022/08/20 08:23:42;;;;;;;15.75;14.15;;;20.50;99.90;;;;;;5074033;28;20224;-75
2022/08/20 08:26:09;;;;;;;16.00;14.07;;;20.80;99.90;;;;;;5073829;28;20205;-76
2022/08/20 08:28:36;;;;;;;15.98;14.48;;;21.30;99.90;;;;;;5073673;28;20620;-77
2022/08/20 08:31:03;;;;;;;15.95;14.27;;;21.30;99.90;;;;;;5073648;28;20197;-77
2022/08/20 08:33:32;;;;;;;15.57;13.95;;;21.70;99.90;;;;;;5073757;28;20258;-75
2022/08/20 08:36:02;;;;;;;15.00;13.48;;;21.60;99.90;;;;;;5073317;28;20224;-77
2022/08/20 08:38:29;;;;;;;15.85;14.13;;;21.90;99.90;;;;;;5073484;28;20208;-76
2022/08/20 08:41:01;;;;;;;14.10;12.73;;;22.20;99.90;;;;;;5073393;28;20242;-77
2022/08/20 08:43:28;;;;;;;16.25;14.38;;;22.70;99.90;;;;;;5072831;28;20225;-77
2022/08/20 08:46:00;;;;;;;15.05;13.45;;;22.70;99.90;;;;;;5073313;28;20201;-76
2022/08/20 08:48:34;;;;;;;15.68;13.95;;;22.60;99.90;;;;;;5073465;28;20751;-78
2022/08/20 08:51:03;;;;;;;16.85;13.73;;;22.70;99.90;;;;;;5073345;28;20227;-78
2022/08/20 08:53:36;;;;;;;16.13;14.48;;;22.60;99.90;;;;;;5073070;28;20668;-77
2022/08/20 08:56:03;;;;;;;19.65;14.32;;;22.30;99.90;;;;;;5073018;28;20225;-76
2022/08/20 08:58:32;;;;;;;14.18;12.57;;;22.50;99.90;;;;;;5073202;28;20193;-75
2022/08/20 09:01:02;;;;;;;14.38;13.07;;;22.90;99.90;;;;;;5073302;28;20220;-76
2022/08/20 09:03:33;;;;;;;14.88;13.32;;;23.30;99.90;;;;;;5073484;28;20192;-75
2022/08/20 09:06:02;;;;;;;15.40;14.02;;;23.50;99.90;;;;;;5073529;28;20197;-77
2022/08/20 09:08:32;;;;;;;16.08;14.38;;;22.90;99.90;;;;;;5073064;28;20201;-77
2022/08/20 09:11:03;;;;;;;16.58;14.75;;;23.00;99.90;;;;;;5072939;28;20530;-77
2022/08/20 09:13:30;;;;;;;15.23;13.77;;;22.90;99.90;;;;;;5073221;28;20310;-77
2022/08/20 09:15:57;;;;;;;15.88;14.25;;;23.10;99.90;;;;;;5073001;28;20220;-77
2022/08/20 09:18:23;;;;;;;15.88;14.23;;;23.50;99.90;;;;;;5073024;28;20270;-76
2022/08/20 09:20:52;;;;;;;15.68;14.18;;;23.60;99.90;;;;;;5072920;28;20274;-77
2022/08/20 09:23:18;;;;;;;15.90;14.35;;;23.80;99.90;;;;;;5073035;28;20254;-76
2022/08/20 09:25:45;;;;;;;18.27;13.60;;;23.70;99.90;;;;;;5073056;28;20208;-76
2022/08/20 09:28:12;;;;;;;14.10;12.70;;;23.40;99.90;;;;;;5072885;28;20534;-77
2022/08/20 09:30:38;;;;;;;14.35;13.10;;;24.00;99.90;;;;;;5072659;28;20197;-77
2022/08/20 09:33:05;;;;;;;16.70;13.82;;;24.10;99.90;;;;;;5072725;28;20196;-76
2022/08/20 09:35:33;;;;;;;16.85;15.15;;;24.30;99.90;;;;;;5072492;28;20270;-77
2022/08/20 09:38:01;;;;;;;15.38;13.98;;;23.80;99.90;;;;;;5072661;28;20220;-78
2022/08/20 09:40:28;;;;;;;14.27;12.98;;;24.10;99.90;;;;;;5072752;28;20201;-75
2022/08/20 09:42:54;;;;;;;15.23;13.65;;;23.80;99.90;;;;;;5072633;28;20229;-75
2022/08/20 09:45:21;;;;;;;16.13;14.35;;;23.80;99.90;;;;;;5072588;28;20201;-75
2022/08/20 09:47:48;;;;;;;18.02;14.77;;;23.80;99.90;;;;;;5072763;28;20567;-75
2022/08/20 09:50:15;;;;;;;16.70;14.77;;;23.50;99.90;;;;;;5072762;28;20192;-76
2022/08/20 09:52:45;;;;;;;16.25;14.10;;;23.30;99.90;;;;;;5074226;28;20254;-76
2022/08/20 09:55:20;;;;;;;15.10;13.70;;;23.90;99.90;;;;;;5074149;28;20224;-76
2022/08/20 09:57:48;;;;;;;18.15;14.30;;;23.70;99.90;;;;;;5076893;28;20196;-76
2022/08/20 10:00:15;;;;;;;15.30;13.80;;;23.40;99.90;;;;;;5076502;28;20242;-76
2022/08/20 10:02:42;;;;;;;15.57;14.20;;;23.50;99.90;;;;;;5076486;28;20594;-76
2022/08/20 10:05:09;;;;;;;14.68;13.27;;;23.70;99.90;;;;;;5076446;28;20205;-76
2022/08/20 10:07:38;;;;;;;17.38;15.63;;;23.70;99.90;;;;;;5076374;28;20652;-77
2022/08/20 10:10:07;;;;;;;16.05;14.45;;;23.50;99.90;;;;;;5076329;28;20196;-76
2022/08/20 10:12:35;;;;;;;15.52;13.93;;;23.90;99.90;;;;;;5076424;28;20283;-76
2022/08/20 10:15:02;;;;;;;20.45;14.93;;;23.70;99.90;;;;;;5076133;28;20267;-78
2022/08/20 10:17:29;;;;;;;15.95;14.27;;;23.60;99.90;;;;;;5076125;28;20467;-78
2022/08/20 10:19:55;;;;;;;16.05;14.45;;;23.80;99.90;;;;;;5076388;28;20197;-79
2022/08/20 10:22:23;;;;;;;19.10;14.77;;;23.70;99.90;;;;;;5076097;28;20201;-78
2022/08/20 10:24:49;;;;;;;16.45;14.40;;;23.60;99.90;;;;;;5076138;28;20287;-77
2022/08/20 10:27:16;;;;;;;16.90;15.20;;;23.30;99.90;;;;;;5076115;28;20197;-77
2022/08/20 10:29:44;;;;;;;16.33;14.60;;;23.00;99.90;;;;;;5076044;28;20246;-77
2022/08/20 10:32:13;;;;;;;16.88;14.48;;;22.90;99.90;;;;;;5075809;28;20197;-78
2022/08/20 10:34:41;;;;;;;15.77;13.95;;;23.00;99.90;;;;;;5076075;28;20246;-77
2022/08/20 10:37:08;;;;;;;15.50;13.15;;;23.10;99.90;;;;;;5076212;28;20201;-77
2022/08/20 10:39:34;;;;;;;17.70;13.32;;;23.20;99.90;;;;;;5075946;28;20227;-77
2022/08/20 10:42:01;;;;;;;15.20;13.45;;;23.30;99.90;;;;;;5075707;28;20221;-77
2022/08/20 10:44:28;;;;;;;15.07;13.52;;;23.50;99.90;;;;;;5076226;28;20208;-78
2022/08/20 10:46:56;;;;;;;15.70;13.10;;;23.60;99.90;;;;;;5075855;28;20196;-76
2022/08/20 10:49:23;;;;;;;14.88;12.85;;;23.90;99.90;;;;;;5075842;28;20197;-77
2022/08/20 10:51:49;;;;;;;15.43;13.68;;;24.20;99.90;;;;;;5075796;28;20255;-77
2022/08/20 10:54:16;;;;;;;14.57;13.20;;;23.70;99.90;;;;;;5075583;28;20201;-77
2022/08/20 10:56:43;;;;;;;13.95;12.55;;;23.70;99.90;;;;;;5075583;28;20221;-78
2022/08/20 10:59:09;;;;;;;15.20;12.10;;;23.90;99.90;;;;;;5075936;28;20242;-78
2022/08/20 11:01:36;;;;;;;15.43;12.98;;;24.30;99.90;;;;;;5075737;28;20607;-78
2022/08/20 11:04:04;;;;;;;13.13;11.48;;;24.10;99.90;;;;;;5075610;28;20201;-77
2022/08/20 11:06:31;;;;;;;13.85;12.55;;;23.90;99.90;;;;;;5075177;28;20201;-76
2022/08/20 11:08:57;;;;;;;12.27;11.18;;;24.10;99.90;;;;;;5075568;28;20204;-78
2022/08/20 11:11:24;;;;;;;12.98;11.60;;;24.20;99.90;;;;;;5075455;28;20730;-77
2022/08/20 11:13:51;;;;;;;12.88;11.68;;;24.30;99.90;;;;;;5075105;28;20714;-78
2022/08/20 11:16:17;;;;;;;15.73;11.98;;;23.80;99.90;;;;;;5075221;28;20228;-78
2022/08/20 11:18:44;;;;;;;12.48;11.18;;;23.50;99.90;;;;;;5075244;28;20209;-76
2022/08/20 11:21:12;;;;;;;12.68;11.35;;;23.60;99.90;;;;;;5075005;28;20201;-75
2022/08/20 11:23:38;;;;;;;12.23;11.02;;;23.50;99.90;;;;;;5075022;28;20250;-77
2022/08/20 11:26:05;;;;;;;12.43;10.82;;;23.40;99.90;;;;;;5074859;28;20599;-78
2022/08/20 11:28:32;;;;;;;13.98;11.25;;;23.40;99.90;;;;;;5075002;28;20201;-77
2022/08/20 11:31:00;;;;;;;13.10;11.23;;;23.20;99.90;;;;;;5074992;28;20193;-78
2022/08/20 11:33:27;;;;;;;12.23;11.02;;;23.00;99.90;;;;;;5074806;28;20703;-77
2022/08/20 11:35:53;;;;;;;11.43;9.43;;;23.10;99.90;;;;;;5074796;28;20224;-78
2022/08/20 11:38:21;;;;;;;10.40;9.30;;;23.10;99.90;;;;;;5074779;28;20192;-78
2022/08/20 11:40:48;;;;;;;9.18;8.30;;;23.70;99.90;;;;;;5074615;28;20197;-78
2022/08/20 11:43:14;;;;;;;8.68;6.05;;;24.40;99.90;;;;;;5074576;28;20237;-77
2022/08/20 11:45:41;;;;;;;5.78;5.28;;;25.10;99.90;;;;;;5074785;28;20209;-75
2022/08/20 11:48:08;;;;;;;4.57;4.18;;;25.30;99.90;;;;;;5074559;28;20205;-76
2022/08/20 11:50:35;;;;;;;4.85;4.45;;;25.10;99.90;;;;;;5074668;28;20274;-78
2022/08/20 11:53:01;;;;;;;4.53;4.13;;;25.50;99.90;;;;;;5074494;28;20270;-78
2022/08/20 11:55:29;;;;;;;4.43;4.10;;;25.70;99.90;;;;;;5074224;28;20232;-78
2022/08/20 11:57:56;;;;;;;4.25;3.90;;;25.80;99.90;;;;;;5074553;28;20197;-78
2022/08/20 12:00:24;;;;;;;5.03;4.55;;;25.60;99.90;;;;;;5074154;28;20552;-77
2022/08/20 12:02:51;;;;;;;5.18;4.55;;;25.90;99.90;;;;;;5074231;28;20197;-77
2022/08/20 12:05:18;;;;;;;4.68;4.28;;;25.50;99.90;;;;;;5074210;28;20201;-77
2022/08/20 12:07:45;;;;;;;4.38;3.75;;;26.10;99.90;;;;;;5074212;28;20204;-78
2022/08/20 12:10:12;;;;;;;4.90;4.32;;;25.70;99.90;;;;;;5074240;28;20656;-77
2022/08/20 12:12:40;;;;;;;4.30;3.90;;;25.70;99.90;;;;;;5074207;28;20196;-77
2022/08/20 12:15:09;;;;;;;5.07;4.60;;;25.80;99.90;;;;;;5073870;28;20564;-77
2022/08/20 12:17:36;;;;;;;4.35;3.70;;;26.10;99.90;;;;;;5072993;28;20254;-77
2022/08/20 12:20:07;;;;;;;3.45;3.15;;;25.80;99.90;;;;;;5073727;28;20197;-77
2022/08/20 12:22:34;;;;;;;5.07;3.60;;;25.30;99.90;;;;;;5073775;28;20197;-77
2022/08/20 12:25:00;;;;;;;4.10;3.75;;;24.50;99.90;;;;;;5073834;28;20254;-77
2022/08/20 12:27:29;;;;;;;4.40;3.97;;;24.00;99.90;;;;;;5074257;28;20232;-77
2022/08/20 12:29:59;;;;;;;4.82;3.70;;;23.90;99.90;;;;;;5073935;28;20656;-77
2022/08/20 12:32:31;;;;;;;3.67;3.45;;;23.80;99.90;;;;;;5073474;28;20205;-77
2022/08/20 12:34:58;;;;;;;2.85;2.47;;;24.50;99.90;;;;;;5073240;28;20197;-77
2022/08/20 12:37:28;;;;;;;2.65;2.33;;;25.00;99.90;;;;;;5073373;28;20229;-77